createdAt,value
2023-03-08T00:01:27.697Z,98758.59
2023-03-08T00:03:55.836Z,98915.25
2023-03-08T00:06:23.628Z,98801.41
2023-03-08T00:08:53.439Z,98855.38
2023-03-08T00:11:20.241Z,98769.00
2023-03-08T00:13:49.282Z,98880.44
2023-03-08T00:16:16.430Z,98894.94
2023-03-08T00:18:43.361Z,98931.84
2023-03-08T00:21:16.029Z,98923.16
2023-03-08T00:23:48.798Z,98846.91
2023-03-08T00:26:17.717Z,98832.72
2023-03-08T00:28:47.960Z,98928.78
2023-03-08T00:31:17.445Z,98838.66
2023-03-08T00:33:46.483Z,98901.16
2023-03-08T00:36:21.289Z,98933.47
2023-03-08T00:38:51.566Z,98821.19
2023-03-08T00:41:18.909Z,98890.81
2023-03-08T00:43:48.052Z,98799.38
2023-03-08T00:46:17.190Z,98885.97
2023-03-08T00:48:45.151Z,98790.75
2023-03-08T00:51:16.081Z,98914.75
2023-03-08T00:53:49.665Z,98816.94
2023-03-08T00:56:16.700Z,98788.66
2023-03-08T00:58:46.520Z,98816.66
2023-03-08T01:01:18.390Z,98750.97
2023-03-08T01:03:47.529Z,98831.00
2023-03-08T01:06:18.864Z,98783.75
2023-03-08T01:08:46.002Z,98650.94
2023-03-08T01:11:19.865Z,98674.47
2023-03-08T01:13:55.748Z,98872.50
2023-03-08T01:16:30.712Z,98824.69
2023-03-08T01:18:59.752Z,98931.75
2023-03-08T01:21:34.480Z,98893.50
2023-03-08T01:24:03.596Z,98816.59
2023-03-08T01:26:30.377Z,98778.53
2023-03-08T01:28:57.598Z,98856.97
2023-03-08T01:31:30.082Z,98777.44
2023-03-08T01:34:00.853Z,98934.78
2023-03-08T01:36:31.725Z,98819.53
2023-03-08T01:39:04.222Z,98946.09
2023-03-08T01:41:32.030Z,98937.56
2023-03-08T01:44:09.483Z,98954.00
2023-03-08T01:46:37.132Z,98811.84
2023-03-08T01:49:28.063Z,98889.94
2023-03-08T01:52:06.994Z,98915.69
2023-03-08T01:54:38.328Z,98830.19
2023-03-08T01:57:16.633Z,98806.50
2023-03-08T01:59:47.318Z,98959.03
2023-03-08T02:02:14.296Z,98441.03
2023-03-08T02:04:41.238Z,98838.38
2023-03-08T02:07:14.257Z,98965.97
2023-03-08T02:09:45.069Z,98829.50
2023-03-08T02:12:12.177Z,98965.47
2023-03-08T02:14:44.918Z,98931.91
2023-03-08T02:17:14.289Z,98914.97
2023-03-08T02:19:50.174Z,98974.53
2023-03-08T02:22:17.749Z,98824.00
2023-03-08T02:24:50.834Z,98917.44
2023-03-08T02:27:26.327Z,98814.53
2023-03-08T02:29:56.551Z,98954.88
2023-03-08T02:32:23.536Z,98959.91
2023-03-08T02:34:58.079Z,98926.69
2023-03-08T02:37:28.421Z,98921.78
2023-03-08T02:39:55.311Z,98928.81
2023-03-08T02:42:22.472Z,98992.72
2023-03-08T02:44:49.229Z,98833.69
2023-03-08T02:47:16.717Z,98912.28
2023-03-08T02:49:46.450Z,98921.50
2023-03-08T02:52:13.479Z,99014.63
2023-03-08T02:54:40.662Z,98816.22
2023-03-08T02:57:07.467Z,98928.91
2023-03-08T02:59:37.910Z,99033.78
2023-03-08T03:02:07.597Z,98996.38
2023-03-08T03:04:40.368Z,98965.13
2023-03-08T03:07:09.680Z,98899.75
2023-03-08T03:09:36.626Z,98880.63
2023-03-08T03:12:03.742Z,98857.22
2023-03-08T03:14:34.891Z,98845.88
2023-03-08T03:17:02.240Z,98930.56
2023-03-08T03:19:29.120Z,98945.47
2023-03-08T03:21:58.306Z,98888.63
2023-03-08T03:24:27.812Z,99015.94
2023-03-08T03:26:58.632Z,98724.97
2023-03-08T03:29:31.613Z,98396.25
2023-03-08T03:32:11.436Z,98499.75
2023-03-08T03:34:38.572Z,98859.81
2023-03-08T03:37:08.532Z,98956.91
2023-03-08T03:39:39.754Z,99088.19
2023-03-08T03:42:09.570Z,98941.06
2023-03-08T03:44:40.335Z,98983.28
2023-03-08T03:47:14.000Z,98909.88
2023-03-08T03:49:40.847Z,98969.44
2023-03-08T03:52:10.477Z,98966.94
2023-03-08T03:54:42.897Z,98949.34
2023-03-08T03:57:12.125Z,98875.69
2023-03-08T03:59:46.681Z,98889.81
2023-03-08T04:02:13.502Z,99040.44
2023-03-08T04:04:51.653Z,99039.47
2023-03-08T04:07:22.517Z,98766.03
2023-03-08T04:09:55.897Z,98876.03
2023-03-08T04:12:22.762Z,98878.69
2023-03-08T04:14:50.007Z,99026.47
2023-03-08T04:17:20.408Z,99022.34
2023-03-08T04:19:53.798Z,98934.06
2023-03-08T04:22:24.039Z,98904.38
2023-03-08T04:25:00.699Z,99039.03
2023-03-08T04:27:44.599Z,99032.06
2023-03-08T04:30:14.633Z,99002.56
2023-03-08T04:32:43.858Z,98979.34
2023-03-08T04:35:11.108Z,98994.41
2023-03-08T04:37:40.281Z,98936.25
2023-03-08T04:40:14.967Z,98981.47
2023-03-08T04:42:49.394Z,98964.34
2023-03-08T04:45:22.388Z,98978.19
2023-03-08T04:47:49.909Z,99027.03
2023-03-08T04:50:17.035Z,98834.00
2023-03-08T04:52:46.504Z,99105.28
2023-03-08T04:55:13.365Z,98886.09
2023-03-08T04:57:42.481Z,99093.38
2023-03-08T05:00:12.796Z,98923.81
2023-03-08T05:02:41.346Z,99079.38
2023-03-08T05:05:13.077Z,99074.94
2023-03-08T05:07:40.742Z,99030.63
2023-03-08T05:10:10.497Z,99060.94
2023-03-08T05:12:43.086Z,98982.31
2023-03-08T05:15:10.797Z,98959.59
2023-03-08T05:17:38.078Z,99031.16
2023-03-08T05:20:06.066Z,98981.41
2023-03-08T05:22:51.382Z,98808.09
2023-03-08T05:25:26.425Z,98986.00
2023-03-08T05:27:58.524Z,98977.94
2023-03-08T05:30:29.019Z,99027.56
2023-03-08T05:32:55.898Z,98994.34
2023-03-08T05:35:22.823Z,99013.78
2023-03-08T05:37:51.072Z,99073.06
2023-03-08T05:40:18.255Z,99003.06
2023-03-08T05:42:46.088Z,99019.75
2023-03-08T05:45:18.605Z,99010.88
2023-03-08T05:47:47.667Z,99055.88
2023-03-08T05:50:17.106Z,98945.50
2023-03-08T05:52:48.673Z,99132.72
2023-03-08T05:55:23.467Z,99139.50
2023-03-08T05:57:50.751Z,99069.97
2023-03-08T06:00:20.573Z,99144.97
2023-03-08T06:02:54.890Z,99150.44
2023-03-08T06:05:24.524Z,99014.38
2023-03-08T06:07:57.199Z,99063.97
2023-03-08T06:10:24.159Z,99074.50
2023-03-08T06:12:52.253Z,98994.34
2023-03-08T06:15:20.541Z,98970.16
2023-03-08T06:17:56.124Z,99168.13
2023-03-08T06:20:28.174Z,99059.31
2023-03-08T06:22:56.163Z,99165.03
2023-03-08T06:25:26.029Z,98999.94
2023-03-08T06:27:53.452Z,99012.47
2023-03-08T06:30:31.756Z,99004.19
2023-03-08T06:33:02.877Z,99087.81
2023-03-08T06:35:32.333Z,99100.31
2023-03-08T06:38:01.660Z,99184.81
2023-03-08T06:40:30.615Z,99134.41
2023-03-08T06:42:57.626Z,99166.97
2023-03-08T06:45:24.414Z,99195.91
2023-03-08T06:47:51.485Z,98915.13
2023-03-08T06:50:18.883Z,99209.13
2023-03-08T06:52:48.075Z,99215.78
2023-03-08T06:55:18.250Z,99113.13
2023-03-08T06:57:47.081Z,99086.69
2023-03-08T07:00:16.619Z,98973.38
2023-03-08T07:02:45.954Z,99127.03
2023-03-08T07:05:18.013Z,99081.25
2023-03-08T07:07:45.086Z,99133.59
2023-03-08T07:10:14.860Z,99166.50
2023-03-08T07:12:48.413Z,99226.09
2023-03-08T07:15:16.598Z,99122.00
2023-03-08T07:17:46.808Z,99183.06
2023-03-08T07:20:18.055Z,99151.50
2023-03-08T07:22:45.024Z,99251.19
2023-03-08T07:25:18.350Z,99091.19
2023-03-08T07:27:45.523Z,99153.34
2023-03-08T07:30:16.461Z,99128.00
2023-03-08T07:32:45.865Z,99171.13
2023-03-08T07:35:13.530Z,99252.94
2023-03-08T07:37:46.275Z,99150.00
2023-03-08T07:40:14.772Z,99255.69
2023-03-08T07:42:43.889Z,99190.59
2023-03-08T07:45:28.228Z,99174.28
2023-03-08T07:47:57.293Z,99159.84
2023-03-08T07:50:24.195Z,99230.84
2023-03-08T07:52:50.963Z,99107.28
2023-03-08T07:55:23.082Z,99269.16
2023-03-08T07:57:52.140Z,99240.81
2023-03-08T08:00:19.532Z,99210.56
2023-03-08T08:02:47.042Z,99155.03
2023-03-08T08:05:14.080Z,99279.97
2023-03-08T08:07:40.920Z,99187.47
2023-03-08T08:10:08.379Z,99169.69
2023-03-08T08:12:37.787Z,99169.81
2023-03-08T08:15:07.123Z,99194.19
2023-03-08T08:17:36.917Z,99149.03
2023-03-08T08:20:05.614Z,99230.19
2023-03-08T08:22:36.760Z,99229.47
2023-03-08T08:25:05.365Z,99190.50
2023-03-08T08:27:35.882Z,99127.06
2023-03-08T08:30:05.309Z,99284.84
2023-03-08T08:32:34.375Z,99205.81
2023-03-08T08:35:01.150Z,99097.56
2023-03-08T08:37:31.371Z,99198.69
2023-03-08T08:40:03.989Z,99236.19
2023-03-08T08:42:33.410Z,99240.50
2023-03-08T08:45:02.330Z,99221.97
2023-03-08T08:47:31.469Z,99186.38
2023-03-08T08:50:00.545Z,99202.13
2023-03-08T08:52:30.097Z,99151.75
2023-03-08T08:54:57.955Z,99208.97
2023-03-08T08:57:27.613Z,99165.50
2023-03-08T08:59:58.990Z,99153.84
2023-03-08T09:02:25.871Z,99220.72
2023-03-08T09:04:52.812Z,99133.72
2023-03-08T09:07:24.754Z,99277.81
2023-03-08T09:09:56.398Z,99281.28
2023-03-08T09:12:25.237Z,99147.78
2023-03-08T09:14:52.000Z,99160.00
2023-03-08T09:17:20.930Z,99179.81
2023-03-08T09:19:49.962Z,99210.53
2023-03-08T09:22:16.877Z,99192.50
2023-03-08T09:24:45.852Z,99139.84
2023-03-08T09:27:12.712Z,99255.91
2023-03-08T09:29:39.886Z,99114.97
2023-03-08T09:32:07.079Z,99155.31
2023-03-08T09:34:34.749Z,99156.25
2023-03-08T09:37:08.381Z,99212.84
2023-03-08T09:39:35.289Z,99243.94
2023-03-08T09:42:06.368Z,99259.75
2023-03-08T09:44:57.024Z,99220.72
2023-03-08T09:47:31.528Z,99249.59
2023-03-08T09:50:12.860Z,99256.69
2023-03-08T09:52:43.461Z,99188.97
2023-03-08T09:55:20.709Z,99257.09
2023-03-08T09:57:56.717Z,99105.72
2023-03-08T10:00:32.875Z,99194.53
2023-03-08T10:03:23.516Z,99241.56
2023-03-08T10:06:16.620Z,99202.47
2023-03-08T10:09:22.534Z,99228.72
2023-03-08T10:12:15.267Z,99217.41
2023-03-08T10:14:55.080Z,99144.19
2023-03-08T10:17:25.286Z,99128.41
2023-03-08T10:20:25.488Z,98439.44
2023-03-08T10:23:07.859Z,99208.47
2023-03-08T10:25:37.379Z,99158.88
2023-03-08T10:28:17.250Z,99094.63
2023-03-08T10:30:51.339Z,99235.41
2023-03-08T10:33:21.054Z,99140.34
2023-03-08T10:36:17.164Z,99227.25
2023-03-08T10:38:55.965Z,99211.31
2023-03-08T10:41:22.762Z,99209.53
2023-03-08T10:43:53.240Z,99226.13
2023-03-08T10:46:25.496Z,99227.34
2023-03-08T10:48:52.668Z,99201.38
2023-03-08T10:51:27.841Z,99227.50
2023-03-08T10:54:03.011Z,99218.84
2023-03-08T10:56:33.259Z,99163.84
2023-03-08T10:59:03.683Z,99217.09
2023-03-08T11:01:51.917Z,99146.75
2023-03-08T11:04:22.960Z,99212.81
2023-03-08T11:06:50.019Z,99085.66
2023-03-08T11:09:22.487Z,99148.31
2023-03-08T11:11:52.032Z,99201.44
2023-03-08T11:14:19.327Z,99104.06
2023-03-08T11:16:54.180Z,99193.72
2023-03-08T11:19:41.928Z,99186.81
2023-03-08T11:22:36.114Z,99177.34
2023-03-08T11:25:09.018Z,99173.00
2023-03-08T11:27:59.537Z,99173.06
2023-03-08T11:30:29.419Z,99172.19
2023-03-08T11:33:17.708Z,99171.34
2023-03-08T11:35:57.019Z,99176.53
2023-03-08T11:38:30.627Z,99179.09
2023-03-08T11:41:27.314Z,99176.47
2023-03-08T11:44:22.389Z,99167.63
2023-03-08T11:47:13.577Z,99172.69
2023-03-08T11:49:49.725Z,99172.47
2023-03-08T11:52:31.947Z,99169.81
2023-03-08T11:55:08.820Z,99088.84
2023-03-08T11:57:39.070Z,99133.63
2023-03-08T12:00:38.473Z,99135.91
2023-03-08T12:03:20.192Z,99161.50
2023-03-08T12:06:22.710Z,99160.91
2023-03-08T12:09:01.586Z,99057.22
2023-03-08T12:11:30.214Z,99107.53
2023-03-08T12:14:23.831Z,99076.38
2023-03-08T12:16:56.037Z,99049.53
2023-03-08T12:19:44.523Z,99146.88
2023-03-08T12:22:45.582Z,99152.03
2023-03-08T12:25:21.717Z,99150.28
2023-03-08T12:28:06.792Z,99144.28
2023-03-08T12:30:58.769Z,99156.03
2023-03-08T12:33:32.488Z,99049.53
2023-03-08T12:36:05.728Z,99008.84
2023-03-08T12:38:37.670Z,99138.44
2023-03-08T12:41:07.326Z,99127.78
2023-03-08T12:43:35.788Z,99069.66
2023-03-08T12:46:09.764Z,99097.66
2023-03-08T12:48:45.866Z,99098.84
2023-03-08T12:51:12.657Z,99105.00
2023-03-08T12:53:51.427Z,99092.19
2023-03-08T12:56:32.456Z,99061.03
2023-03-08T12:59:24.120Z,99077.66
2023-03-08T13:01:57.202Z,99066.69
2023-03-08T13:04:43.059Z,98981.78
2023-03-08T13:07:37.702Z,99040.03
2023-03-08T13:10:07.578Z,99037.41
2023-03-08T13:12:55.110Z,99031.34
2023-03-08T13:15:28.773Z,99017.34
2023-03-08T13:18:08.633Z,99013.00
2023-03-08T13:20:51.742Z,98862.75
2023-03-08T13:23:24.896Z,98858.34
2023-03-08T13:26:11.596Z,98994.13
2023-03-08T13:28:47.235Z,98873.28
2023-03-08T13:31:20.571Z,98910.25
2023-03-08T13:33:53.245Z,98980.97
2023-03-08T13:36:20.376Z,98972.56
2023-03-08T13:39:20.796Z,98970.38
2023-03-08T13:41:48.096Z,98796.13
2023-03-08T13:44:26.470Z,98881.16
2023-03-08T13:47:00.600Z,98954.06
2023-03-08T13:49:35.537Z,98951.47
2023-03-08T13:52:08.262Z,98840.34
2023-03-08T13:54:37.908Z,98914.13
2023-03-08T13:57:19.134Z,98873.31
2023-03-08T13:59:54.218Z,98941.03
2023-03-08T14:02:28.746Z,98888.91
2023-03-08T14:04:58.892Z,98838.56
2023-03-08T14:07:28.432Z,98934.09
2023-03-08T14:09:56.157Z,98841.13
2023-03-08T14:12:26.242Z,98824.63
2023-03-08T14:14:58.559Z,98851.41
2023-03-08T14:17:30.052Z,98841.91
2023-03-08T14:19:59.188Z,98947.84
2023-03-08T14:22:38.577Z,98939.28
2023-03-08T14:25:07.812Z,98880.25
2023-03-08T14:27:42.572Z,98900.19
2023-03-08T14:30:26.988Z,98886.31
2023-03-08T14:33:07.085Z,98888.91
2023-03-08T14:35:39.071Z,98874.81
2023-03-08T14:38:25.300Z,98864.00
2023-03-08T14:40:52.880Z,98916.06
2023-03-08T14:43:24.825Z,98944.31
2023-03-08T14:45:56.953Z,98810.84
2023-03-08T14:48:35.201Z,98953.19
2023-03-08T14:51:18.891Z,98902.75
2023-03-08T14:54:00.462Z,98977.38
2023-03-08T14:56:28.840Z,98919.03
2023-03-08T14:59:00.477Z,98853.84
2023-03-08T15:01:35.212Z,98748.69
2023-03-08T15:04:04.925Z,98835.53
2023-03-08T15:06:33.831Z,98877.25
2023-03-08T15:09:01.718Z,98817.44
2023-03-08T15:11:31.980Z,98847.84
2023-03-08T15:13:59.747Z,98760.91
2023-03-08T15:16:26.873Z,98879.91
2023-03-08T15:18:53.775Z,98912.97
2023-03-08T15:21:28.521Z,98900.00
2023-03-08T15:23:58.233Z,98718.50
2023-03-08T15:26:33.868Z,98893.06
2023-03-08T15:29:06.361Z,98896.47
2023-03-08T15:31:33.412Z,98832.16
2023-03-08T15:34:05.283Z,98836.50
2023-03-08T15:36:35.788Z,98849.50
2023-03-08T15:39:04.677Z,98760.06
2023-03-08T15:41:31.887Z,98876.47
2023-03-08T15:43:59.029Z,98801.78
2023-03-08T15:46:25.936Z,98728.94
2023-03-08T15:48:52.851Z,98806.22
2023-03-08T15:51:21.297Z,98800.09
2023-03-08T15:53:51.067Z,98717.63
2023-03-08T15:56:23.070Z,98818.41
2023-03-08T15:58:49.840Z,98702.97
2023-03-08T16:01:16.653Z,98682.13
2023-03-08T16:03:45.738Z,98689.09
2023-03-08T16:06:16.766Z,98847.88
2023-03-08T16:08:46.648Z,98801.91
2023-03-08T16:11:22.596Z,98837.47
2023-03-08T16:13:53.951Z,98834.88
2023-03-08T16:16:38.685Z,98664.66
2023-03-08T16:19:14.164Z,98643.84
2023-03-08T16:21:45.634Z,98730.59
2023-03-08T16:24:14.962Z,98658.56
2023-03-08T16:26:41.666Z,98840.91
2023-03-08T16:29:12.962Z,98753.19
2023-03-08T16:31:48.083Z,98728.00
2023-03-08T16:34:18.070Z,98843.53
2023-03-08T16:36:50.202Z,98825.31
2023-03-08T16:39:22.276Z,98809.63
2023-03-08T16:41:51.674Z,98774.88
2023-03-08T16:44:30.622Z,98832.22
2023-03-08T16:47:00.097Z,98826.13
2023-03-08T16:49:28.624Z,98662.06
2023-03-08T16:51:56.054Z,98750.63
2023-03-08T16:54:23.781Z,98736.72
2023-03-08T16:56:50.862Z,98813.22
2023-03-08T16:59:17.739Z,98808.91
2023-03-08T17:01:47.384Z,98735.03
2023-03-08T17:04:14.472Z,98742.84
2023-03-08T17:06:46.792Z,98812.38
2023-03-08T17:09:13.604Z,98751.66
2023-03-08T17:11:43.432Z,98697.78
2023-03-08T17:14:12.563Z,98802.75
2023-03-08T17:16:43.499Z,98679.41
2023-03-08T17:19:13.584Z,98713.25
2023-03-08T17:21:40.619Z,98777.50
2023-03-08T17:24:09.645Z,98728.00
2023-03-08T17:26:46.044Z,98807.03
2023-03-08T17:29:13.239Z,98802.75
2023-03-08T17:31:42.324Z,98746.25
2023-03-08T17:34:09.521Z,98821.78
2023-03-08T17:36:36.656Z,98813.94
2023-03-08T17:39:04.174Z,98692.34
2023-03-08T17:41:34.508Z,98722.81
2023-03-08T17:44:01.644Z,98732.41
2023-03-08T17:46:28.485Z,98728.91
2023-03-08T17:49:00.054Z,98697.59
2023-03-08T17:51:29.285Z,98806.16
2023-03-08T17:53:58.162Z,98806.09
2023-03-08T17:56:29.276Z,98807.81
2023-03-08T17:58:57.777Z,98684.47
2023-03-08T18:01:27.537Z,98696.75
2023-03-08T18:03:58.197Z,98740.91
2023-03-08T18:06:31.675Z,98713.16
2023-03-08T18:09:04.121Z,98796.47
2023-03-08T18:11:37.778Z,98784.22
2023-03-08T18:14:12.738Z,98771.19
2023-03-08T18:16:40.146Z,98792.94
2023-03-08T18:19:07.619Z,98771.22
2023-03-08T18:21:41.515Z,98775.59
2023-03-08T18:24:12.740Z,98787.66
2023-03-08T18:26:39.604Z,98728.50
2023-03-08T18:29:08.038Z,98600.94
2023-03-08T18:31:37.595Z,98771.19
2023-03-08T18:34:10.114Z,98720.75
2023-03-08T18:36:39.215Z,98652.22
2023-03-08T18:39:08.485Z,98738.94
2023-03-08T18:41:35.464Z,98684.19
2023-03-08T18:44:02.293Z,98685.06
2023-03-08T18:46:30.799Z,98748.41
2023-03-08T18:49:07.089Z,98660.81
2023-03-08T18:51:37.588Z,98631.28
2023-03-08T18:54:05.010Z,98717.28
2023-03-08T18:56:34.217Z,98691.22
2023-03-08T18:59:03.829Z,98712.56
2023-03-08T19:01:31.402Z,98607.00
2023-03-08T19:04:04.057Z,98746.75
2023-03-08T19:06:31.191Z,98666.06
2023-03-08T19:09:02.178Z,98653.00
2023-03-08T19:11:29.209Z,98659.94
2023-03-08T19:13:56.133Z,98674.78
2023-03-08T19:16:30.201Z,98739.84
2023-03-08T19:19:04.087Z,98744.19
2023-03-08T19:21:33.680Z,98617.56
2023-03-08T19:24:00.905Z,98710.47
2023-03-08T19:26:36.179Z,98722.53
2023-03-08T19:29:20.257Z,98720.84
2023-03-08T19:31:55.407Z,98740.66
2023-03-08T19:34:25.726Z,98745.00
2023-03-08T19:36:52.575Z,98594.03
2023-03-08T19:39:30.363Z,98648.75
2023-03-08T19:42:00.102Z,98717.31
2023-03-08T19:44:28.026Z,98563.72
2023-03-08T19:46:55.307Z,98676.53
2023-03-08T19:49:25.328Z,98623.66
2023-03-08T19:51:57.734Z,98714.84
2023-03-08T19:54:27.916Z,98703.59
2023-03-08T19:56:55.889Z,98613.28
2023-03-08T19:59:25.486Z,98706.25
2023-03-08T20:01:58.087Z,98665.44
2023-03-08T20:04:29.310Z,98554.25
2023-03-08T20:06:59.840Z,98564.66
2023-03-08T20:09:29.290Z,98638.41
2023-03-08T20:11:58.770Z,98721.69
2023-03-08T20:14:27.611Z,98726.84
2023-03-08T20:16:57.573Z,98588.81
2023-03-08T20:19:24.448Z,98550.69
2023-03-08T20:21:51.230Z,98739.94
2023-03-08T20:24:18.989Z,98643.53
2023-03-08T20:26:46.257Z,98739.94
2023-03-08T20:29:15.660Z,98731.34
2023-03-08T20:31:42.533Z,98722.59
2023-03-08T20:34:09.682Z,98636.66
2023-03-08T20:36:37.537Z,98595.09
2023-03-08T20:39:07.142Z,98653.22
2023-03-08T20:41:33.869Z,98722.63
2023-03-08T20:44:02.938Z,98565.44
2023-03-08T20:46:33.300Z,98629.72
2023-03-08T20:49:00.617Z,98711.41
2023-03-08T20:51:28.465Z,98707.03
2023-03-08T20:54:00.586Z,98712.25
2023-03-08T20:56:32.035Z,98692.28
2023-03-08T20:59:02.028Z,98589.84
2023-03-08T21:01:31.533Z,98700.03
2023-03-08T21:04:05.577Z,98686.97
2023-03-08T21:06:32.556Z,98676.50
2023-03-08T21:09:04.169Z,98630.47
2023-03-08T21:11:33.720Z,98652.16
2023-03-08T21:14:00.598Z,98567.06
2023-03-08T21:16:30.915Z,98619.09
2023-03-08T21:19:02.994Z,98566.22
2023-03-08T21:21:32.940Z,98653.00
2023-03-08T21:24:01.929Z,98704.28
2023-03-08T21:26:29.952Z,98685.09
2023-03-08T21:29:01.833Z,98706.84
2023-03-08T21:31:30.034Z,98693.00
2023-03-08T21:34:02.155Z,98630.47
2023-03-08T21:36:33.905Z,98690.38
2023-03-08T21:39:00.664Z,98702.59
2023-03-08T21:41:33.743Z,98712.13
2023-03-08T21:44:09.446Z,98684.53
2023-03-08T21:46:39.622Z,98610.69
2023-03-08T21:49:07.848Z,98548.28
2023-03-08T21:51:35.001Z,98551.88
2023-03-08T21:54:05.934Z,98625.59
2023-03-08T21:56:37.563Z,98647.31
2023-03-08T21:59:04.613Z,98636.88
2023-03-08T22:01:33.967Z,98480.88
2023-03-08T22:04:03.835Z,98632.63
2023-03-08T22:06:31.265Z,98562.25
2023-03-08T22:08:58.360Z,98593.44
2023-03-08T22:11:28.422Z,98626.41
2023-03-08T22:13:57.396Z,98624.66
2023-03-08T22:16:27.992Z,98565.69
2023-03-08T22:18:56.850Z,98582.25
2023-03-08T22:21:29.956Z,98663.81
2023-03-08T22:23:59.764Z,98670.72
2023-03-08T22:26:27.294Z,98548.41
2023-03-08T22:28:58.031Z,98479.94
2023-03-08T22:31:27.400Z,98661.25
2023-03-08T22:33:57.039Z,98659.47
2023-03-08T22:36:24.003Z,98647.34
2023-03-08T22:38:50.806Z,98522.38
2023-03-08T22:41:23.041Z,98661.97
2023-03-08T22:43:52.519Z,98417.47
2023-03-08T22:46:24.194Z,98537.16
2023-03-08T22:48:51.445Z,98652.50
2023-03-08T22:51:20.142Z,98651.66
2023-03-08T22:53:49.611Z,98529.28
2023-03-08T22:56:20.726Z,98660.22
2023-03-08T22:58:52.741Z,98585.63
2023-03-08T23:01:22.322Z,98405.31
2023-03-08T23:03:49.864Z,98632.47
2023-03-08T23:06:22.054Z,98656.84
2023-03-08T23:08:48.947Z,98491.22
2023-03-08T23:11:15.825Z,98623.06
2023-03-08T23:13:48.031Z,98434.97
2023-03-08T23:16:16.337Z,98640.50
2023-03-08T23:18:45.823Z,98646.59
2023-03-08T23:21:13.428Z,98635.38
2023-03-08T23:23:42.850Z,98537.50
2023-03-08T23:26:11.469Z,98619.88
2023-03-08T23:28:38.468Z,98409.25
2023-03-08T23:31:15.208Z,98615.53
2023-03-08T23:33:44.954Z,98612.94
2023-03-08T23:36:16.433Z,98606.03
2023-03-08T23:38:45.881Z,98526.19
2023-03-08T23:41:18.502Z,98509.72
2023-03-08T23:43:48.683Z,98612.00
2023-03-08T23:46:17.640Z,98623.31
2023-03-08T23:48:45.675Z,98597.38
2023-03-08T23:51:20.206Z,98604.31
2023-03-08T23:53:52.433Z,98607.78
2023-03-08T23:56:26.918Z,98600.84
2023-03-08T23:58:59.155Z,98546.25
